createdAt,value
2019-06-26T00:02:59.194Z,22.53
2019-06-26T00:08:05.681Z,22.54
2019-06-26T00:13:25.178Z,22.46
2019-06-26T00:18:19.465Z,22.49
2019-06-26T00:23:25.534Z,22.45
2019-06-26T00:28:31.612Z,22.41
2019-06-26T00:33:37.694Z,22.42
2019-06-26T00:38:43.896Z,22.39
2019-06-26T00:43:49.929Z,22.40
2019-06-26T00:48:55.901Z,22.32
2019-06-26T00:54:03.411Z,22.33
2019-06-26T00:59:09.384Z,22.25
2019-06-26T01:04:19.752Z,22.30
2019-06-26T01:09:25.724Z,22.26
2019-06-26T01:14:31.899Z,22.22
2019-06-26T01:19:37.871Z,22.21
2019-06-26T01:24:43.935Z,22.15
2019-06-26T01:29:49.910Z,22.14
2019-06-26T01:34:55.883Z,22.17
2019-06-26T01:40:01.857Z,22.10
2019-06-26T01:45:10.118Z,22.06
2019-06-26T01:50:16.667Z,22.13
2019-06-26T01:55:23.037Z,22.17
2019-06-26T02:00:28.911Z,22.15
2019-06-26T02:05:34.995Z,22.18
2019-06-26T02:10:41.058Z,22.18
2019-06-26T02:15:48.156Z,22.26
2019-06-26T02:20:54.235Z,22.27
2019-06-26T02:26:00.336Z,22.27
2019-06-26T02:31:06.687Z,22.26
2019-06-26T02:36:12.720Z,22.18
2019-06-26T02:41:18.879Z,22.12
2019-06-26T02:46:25.010Z,22.11
2019-06-26T02:51:32.031Z,22.12
2019-06-26T02:56:38.011Z,22.05
2019-06-26T03:01:44.567Z,22.21
2019-06-26T03:06:50.627Z,22.32
2019-06-26T03:11:56.702Z,22.48
2019-06-26T03:17:02.672Z,22.58
2019-06-26T03:22:08.949Z,22.77
2019-06-26T03:27:14.933Z,23.01
2019-06-26T03:32:21.004Z,23.32
2019-06-26T03:37:27.785Z,23.56
2019-06-26T03:42:33.876Z,23.73
2019-06-26T03:47:39.834Z,23.86
2019-06-26T03:52:45.827Z,23.60
2019-06-26T03:57:52.279Z,23.78
2019-06-26T04:02:58.460Z,23.85
2019-06-26T04:08:05.144Z,23.86
2019-06-26T04:13:11.115Z,24.02
2019-06-26T04:18:17.189Z,25.12
2019-06-26T04:23:23.226Z,27.35
2019-06-26T04:28:29.355Z,28.49
2019-06-26T04:33:35.924Z,29.24
2019-06-26T04:38:42.018Z,29.87
2019-06-26T04:43:48.311Z,29.95
2019-06-26T04:48:54.451Z,29.86
2019-06-26T04:54:00.525Z,30.81
2019-06-26T04:59:08.268Z,30.70
2019-06-26T05:04:14.507Z,30.61
2019-06-26T05:09:20.569Z,31.20
2019-06-26T05:14:27.276Z,30.66
2019-06-26T05:19:33.455Z,30.94
2019-06-26T05:24:40.405Z,31.36
2019-06-26T05:29:46.750Z,31.74
2019-06-26T05:34:52.911Z,31.80
2019-06-26T05:39:59.607Z,32.12
2019-06-26T05:45:07.060Z,32.45
2019-06-26T05:50:14.493Z,32.63
2019-06-26T05:55:21.289Z,32.63
2019-06-26T06:00:29.533Z,33.28
2019-06-26T06:05:35.583Z,33.66
2019-06-26T06:10:42.280Z,33.94
2019-06-26T06:15:48.351Z,33.46
2019-06-26T06:20:54.455Z,33.59
2019-06-26T06:26:00.710Z,33.71
2019-06-26T06:31:06.873Z,33.94
2019-06-26T06:36:13.154Z,33.97
2019-06-26T06:41:19.213Z,33.69
2019-06-26T06:46:25.503Z,33.68
2019-06-26T06:51:31.685Z,33.83
2019-06-26T06:56:38.058Z,33.55
2019-06-26T07:01:44.442Z,33.67
2019-06-26T07:06:50.740Z,33.95
2019-06-26T07:11:56.888Z,33.49
2019-06-26T07:17:16.088Z,33.33
2019-06-26T07:22:11.294Z,33.43
2019-06-26T07:27:17.458Z,32.90
2019-06-26T07:32:23.639Z,32.68
2019-06-26T07:37:30.229Z,32.18
2019-06-26T07:42:36.638Z,32.50
2019-06-26T07:47:44.322Z,32.12
2019-06-26T07:52:51.922Z,31.77
2019-06-26T07:57:58.293Z,31.61
2019-06-26T08:03:05.843Z,31.50
2019-06-26T08:08:14.665Z,31.55
2019-06-26T08:13:21.131Z,31.59
2019-06-26T08:18:27.304Z,31.58
2019-06-26T08:23:33.378Z,31.48
2019-06-26T08:28:39.859Z,31.52
2019-06-26T08:33:45.989Z,31.45
2019-06-26T08:38:52.005Z,31.43
2019-06-26T08:43:58.156Z,31.76
2019-06-26T08:49:04.365Z,31.85
2019-06-26T08:54:10.325Z,31.95
2019-06-26T08:59:16.403Z,32.23
2019-06-26T09:04:22.991Z,32.08
2019-06-26T09:09:28.957Z,32.17
2019-06-26T09:14:35.231Z,32.20
2019-06-26T09:19:41.453Z,32.44
2019-06-26T09:24:47.586Z,32.38
2019-06-26T09:29:53.662Z,32.39
2019-06-26T09:34:59.631Z,32.58
2019-06-26T09:40:08.269Z,32.85
2019-06-26T09:45:14.644Z,32.92
2019-06-26T09:50:21.157Z,33.00
2019-06-26T09:55:27.195Z,33.21
2019-06-26T10:00:33.489Z,33.15
2019-06-26T10:05:40.008Z,33.17
2019-06-26T10:10:46.236Z,32.87
2019-06-26T10:15:52.310Z,32.51
2019-06-26T10:20:58.378Z,33.20
2019-06-26T10:26:04.585Z,33.45
2019-06-26T10:31:10.736Z,33.52
2019-06-26T10:36:16.811Z,33.58
2019-06-26T10:41:22.886Z,33.62
2019-06-26T10:46:29.563Z,33.66
2019-06-26T10:51:35.639Z,33.83
2019-06-26T10:56:41.616Z,34.09
2019-06-26T11:01:47.689Z,34.02
2019-06-26T11:06:53.964Z,34.17
2019-06-26T11:12:00.100Z,34.35
2019-06-26T11:17:06.522Z,34.60
2019-06-26T11:22:12.599Z,34.51
2019-06-26T11:27:18.564Z,34.25
2019-06-26T11:32:24.534Z,34.42
2019-06-26T11:37:30.994Z,34.50
2019-06-26T11:42:37.094Z,34.50
2019-06-26T11:47:45.785Z,34.49
2019-06-26T11:52:50.874Z,34.68
2019-06-26T11:57:56.846Z,34.83
2019-06-26T12:03:02.926Z,34.47
2019-06-26T12:08:09.236Z,34.84
2019-06-26T12:13:15.502Z,34.98
2019-06-26T12:18:21.557Z,35.03
2019-06-26T12:23:27.615Z,35.14
2019-06-26T12:28:33.798Z,35.06
2019-06-26T12:33:39.907Z,35.11
2019-06-26T12:38:45.848Z,35.48
2019-06-26T12:43:51.818Z,35.48
2019-06-26T12:48:57.895Z,35.28
2019-06-26T12:54:04.067Z,35.33
2019-06-26T12:59:10.228Z,35.24
2019-06-26T13:04:16.311Z,35.24
2019-06-26T13:09:22.714Z,35.41
2019-06-26T13:14:28.717Z,35.56
2019-06-26T13:19:34.728Z,35.62
2019-06-26T13:24:43.988Z,35.43
2019-06-26T13:29:48.516Z,35.41
2019-06-26T13:34:54.481Z,35.23
2019-06-26T13:40:00.564Z,35.28
2019-06-26T13:45:08.375Z,35.40
2019-06-26T13:50:15.182Z,35.48
2019-06-26T13:55:21.349Z,35.40
2019-06-26T14:00:28.021Z,35.40
2019-06-26T14:05:34.406Z,35.48
2019-06-26T14:10:40.580Z,35.59
2019-06-26T14:15:46.660Z,35.55
2019-06-26T14:20:52.823Z,35.32
2019-06-26T14:25:58.899Z,35.39
2019-06-26T14:31:05.086Z,35.37
2019-06-26T14:36:12.236Z,35.05
2019-06-26T14:41:18.556Z,35.04
2019-06-26T14:46:24.635Z,35.56
2019-06-26T14:51:42.328Z,35.61
2019-06-26T14:56:38.419Z,35.53
2019-06-26T15:01:44.500Z,35.71
2019-06-26T15:06:50.724Z,35.83
2019-06-26T15:11:56.834Z,35.58
2019-06-26T15:17:02.809Z,35.79
2019-06-26T15:22:08.874Z,35.95
2019-06-26T15:27:15.063Z,36.29
2019-06-26T15:32:21.276Z,36.04
2019-06-26T15:37:27.273Z,35.77
2019-06-26T15:42:33.263Z,35.61
2019-06-26T15:47:40.777Z,35.95
2019-06-26T15:52:46.742Z,35.98
2019-06-26T15:57:52.621Z,36.16
2019-06-26T16:02:58.694Z,36.13
2019-06-26T16:08:04.967Z,36.05
2019-06-26T16:13:11.350Z,35.76
2019-06-26T16:18:22.026Z,35.34
2019-06-26T16:23:29.328Z,35.16
2019-06-26T16:28:35.708Z,35.01
2019-06-26T16:33:42.193Z,34.90
2019-06-26T16:38:48.264Z,34.69
2019-06-26T16:43:54.359Z,34.51
2019-06-26T16:49:00.410Z,34.34
2019-06-26T16:54:06.381Z,34.06
2019-06-26T16:59:12.253Z,33.89
2019-06-26T17:04:18.321Z,33.82
2019-06-26T17:09:24.396Z,33.76
2019-06-26T17:14:30.898Z,33.54
2019-06-26T17:19:37.162Z,33.19
2019-06-26T17:24:43.417Z,33.12
2019-06-26T17:29:49.401Z,33.35
2019-06-26T17:34:55.388Z,33.49
2019-06-26T17:40:01.450Z,33.38
2019-06-26T17:45:08.573Z,33.07
2019-06-26T17:50:15.681Z,32.31
2019-06-26T17:55:21.633Z,31.64
2019-06-26T18:00:32.195Z,31.14
2019-06-26T18:05:38.178Z,30.89
2019-06-26T18:10:44.203Z,30.70
2019-06-26T18:15:50.514Z,29.91
2019-06-26T18:20:56.592Z,30.41
2019-06-26T18:26:12.454Z,30.35
2019-06-26T18:31:10.367Z,30.25
2019-06-26T18:36:16.444Z,30.12
2019-06-26T18:41:22.430Z,29.80
2019-06-26T18:46:28.706Z,29.49
2019-06-26T18:51:34.775Z,29.40
2019-06-26T18:56:40.839Z,29.14
2019-06-26T19:01:46.938Z,29.22
2019-06-26T19:06:53.095Z,28.90
2019-06-26T19:11:59.164Z,28.94
2019-06-26T19:17:06.466Z,28.77
2019-06-26T19:22:12.535Z,28.67
2019-06-26T19:27:18.508Z,28.23
2019-06-26T19:32:24.859Z,27.87
2019-06-26T19:37:30.891Z,28.10
2019-06-26T19:42:37.197Z,28.15
2019-06-26T19:47:43.308Z,28.06
2019-06-26T19:52:49.489Z,27.85
2019-06-26T19:57:55.454Z,27.51
2019-06-26T20:03:01.333Z,27.25
2019-06-26T20:08:07.499Z,27.08
2019-06-26T20:13:13.466Z,26.84
2019-06-26T20:18:20.269Z,26.53
2019-06-26T20:23:26.334Z,26.35
2019-06-26T20:28:33.247Z,26.24
2019-06-26T20:33:39.193Z,26.24
2019-06-26T20:38:45.157Z,25.99
2019-06-26T20:43:51.031Z,25.83
2019-06-26T20:48:56.904Z,25.72
2019-06-26T20:54:02.885Z,25.68
2019-06-26T20:59:09.154Z,25.70
2019-06-26T21:04:15.226Z,25.60
2019-06-26T21:09:21.140Z,25.62
2019-06-26T21:14:27.055Z,25.59
2019-06-26T21:19:33.349Z,25.48
2019-06-26T21:24:39.433Z,25.26
2019-06-26T21:29:45.487Z,25.12
2019-06-26T21:34:51.312Z,24.93
2019-06-26T21:39:57.327Z,24.81
2019-06-26T21:45:03.396Z,24.59
2019-06-26T21:50:09.865Z,24.46
2019-06-26T21:55:15.850Z,24.30
2019-06-26T22:00:39.742Z,24.23
2019-06-26T22:06:03.529Z,24.10
2019-06-26T22:11:11.035Z,24.00
2019-06-26T22:16:17.118Z,23.89
2019-06-26T22:21:23.802Z,23.78
2019-06-26T22:26:30.077Z,23.80
2019-06-26T22:31:36.456Z,23.71
2019-06-26T22:36:51.233Z,23.64
2019-06-26T22:41:51.335Z,23.63
2019-06-26T22:46:57.335Z,23.56
2019-06-26T22:52:03.410Z,23.46
2019-06-26T22:57:11.125Z,23.24
2019-06-26T23:02:17.193Z,23.19
2019-06-26T23:07:23.167Z,23.17
2019-06-26T23:12:29.040Z,23.11
2019-06-26T23:17:35.005Z,23.02
2019-06-26T23:22:41.492Z,23.06
2019-06-26T23:27:47.561Z,22.88
2019-06-26T23:32:53.524Z,22.73
2019-06-26T23:37:59.495Z,22.52
2019-06-26T23:43:05.699Z,22.48
2019-06-26T23:48:11.648Z,22.50
2019-06-26T23:53:17.630Z,22.46
2019-06-26T23:58:23.692Z,22.29
